This is the latest recevied weather packets stored in our database for station/object F5BSF-11. If no packets are shown the sender has not sent any weather packets the latest 10 day(s).
| Time | Temp. | Humidity | Pressure | Rain* | Wind** | Luminosity | Snow |
|---|---|---|---|---|---|---|---|
| 1777834203 | 22.22° C | 48% | 992.8 hPa | - | - | - | - |
| 1777833303 | 22.22° C | 48% | 992.6 hPa | - | - | - | - |
| 1777832403 | 22.22° C | 48% | 992.6 hPa | - | - | - | - |
| 1777831502 | 22.22° C | 48% | 992.5 hPa | - | - | - | - |
| 1777830602 | 22.22° C | 47% | 992.5 hPa | - | - | - | - |
| 1777829702 | 22.22° C | 46% | 992.4 hPa | - | - | - | - |
| 1777828802 | 22.22° C | 46% | 992.5 hPa | - | - | - | - |
| 1777827902 | 22.22° C | 45% | 992.4 hPa | - | - | - | - |
| 1777827594 | 22.78° C | 45% | 992.4 hPa | - | - | - | - |
| 1777827201 | 22.78° C | 45% | 992.4 hPa | - | - | - | - |
| 1777826301 | 22.78° C | 45% | 992.8 hPa | - | - | - | - |
| 1777825400 | 23.33° C | 45% | 992.8 hPa | - | - | - | - |
| 1777824500 | 23.89° C | 43% | 992.5 hPa | - | - | - | - |
| 1777823599 | 23.89° C | 43% | 992.6 hPa | - | - | - | - |
| 1777823475 | 24.44° C | 43% | 992.7 hPa | - | - | - | - |
| 1777818583 | 23.89° C | 45% | 993.5 hPa | - | - | - | - |
| 1777818433 | 23.33° C | 46% | 993.4 hPa | - | - | - | - |
| 1777818385 | 23.33° C | 47% | 993.4 hPa | - | - | - | - |
| 1777817746 | 23.33° C | 48% | 993.6 hPa | - | - | - | - |
| 1777817632 | 22.78° C | 46% | 993.6 hPa | - | - | - | - |
| 1777817604 | 22.78° C | 49% | 993.7 hPa | - | - | - | - |
| 1777817404 | 22.78° C | 49% | 993.6 hPa | - | - | - | - |
| 1777816504 | 22.78° C | 50% | 993.7 hPa | - | - | - | - |
| 1777815604 | 22.78° C | 50% | 993.8 hPa | - | - | - | - |
| 1777814703 | 22.22° C | 50% | 994 hPa | - | - | - | - |
* Rain since midnight (hover to see other rain measurements)
** Current wind speed in m/s (hover to see current wind gust speed)